Dayton, Alabama
Current Conditions -  °F | °C
As of 10:15 AM on Wednesday 26 Nov 2014 (Local Time) from KDYA Reporting Station
Clear Clear  
Wind Chill: 49°   Ceiling: Unl
Heat Index: 49°   Visibility: 10mi
Dew Point: 27°   Wind: 0mph
Humidity: 42%   Direction: NA
Pressure: 30.24"   Gusts: NA
Location:  32.409°N, 87.615°W
Report Text: KDYA 261615Z AUTO 00000KT 10SM CLR 10/M03 A3024 RMK AO2 T00951030
Loading
Personal Weather Stations






























Interactive Weather Map New forecast layout! Learn more

10-Day Weather Forecast

Advertisements
Track Severe Weather on mobile